EGUN - Mildenhall Royal AFB
Distance from station: E 5mi, 14km
Updated: 12/10/2017 7:30pm
Mist, Partly cloudy
Mist, Partly cloudy
 Wind from NE
Wind: NE 7 mph , 11 km/h
Temperature: 32°F , 0°C
Wind Chill: 25°F , -4°C
Dew Point: 32°F , 0°C
Humidity: 100%
Barometer: 29.00 inHg , 982.1 hPa
Summary: Mist
Clouds: Partly Cloudy
Visibility: 5 miles , 8 km
Cloud details: Few Clouds 0 ft
Partly Cloudy 11000 ft
2017/12/11 03:30 EGUN 110330Z AUTO 04006KT 8000 BR FEW000 SCT110 00/00 A2900 RMK AO2 VIS 4400 RWY29 FZDZB00E01 SLP824 $